createdAt,value
2018-04-15T00:00:49.053Z,1014.16
2018-04-15T00:01:49.081Z,1014.15
2018-04-15T00:02:49.074Z,1014.16
2018-04-15T00:03:49.092Z,1014.18
2018-04-15T00:04:49.119Z,1014.14
2018-04-15T00:05:49.119Z,1014.13
2018-04-15T00:06:49.113Z,1014.14
2018-04-15T00:07:49.136Z,1014.14
2018-04-15T00:08:49.151Z,1014.11
2018-04-15T00:09:49.149Z,1014.12
2018-04-15T00:10:49.168Z,1014.14
2018-04-15T00:11:49.164Z,1014.15
2018-04-15T00:12:49.195Z,1014.14
2018-04-15T00:13:49.213Z,1014.16
2018-04-15T00:14:49.191Z,1014.16
2018-04-15T00:15:49.218Z,1014.15
2018-04-15T00:16:49.217Z,1014.17
2018-04-15T00:17:49.228Z,1014.14
2018-04-15T00:18:49.267Z,1014.15
2018-04-15T00:19:49.271Z,1014.11
2018-04-15T00:20:49.344Z,1014.12
2018-04-15T00:21:49.280Z,1014.11
2018-04-15T00:22:49.277Z,1014.09
2018-04-15T00:23:49.299Z,1014.10
2018-04-15T00:24:49.337Z,1014.13
2018-04-15T00:25:49.330Z,1014.16
2018-04-15T00:26:49.337Z,1014.12
2018-04-15T00:27:49.341Z,1014.13
2018-04-15T00:28:49.356Z,1014.12
2018-04-15T00:29:49.350Z,1014.16
2018-04-15T00:30:49.413Z,1014.11
2018-04-15T00:31:49.378Z,1014.12
2018-04-15T00:32:49.384Z,1014.11
2018-04-15T00:33:49.409Z,1014.09
2018-04-15T00:34:49.420Z,1014.06
2018-04-15T00:35:49.448Z,1014.02
2018-04-15T00:36:49.434Z,1014.00
2018-04-15T00:37:49.436Z,1013.98
2018-04-15T00:38:49.461Z,1013.99
2018-04-15T00:39:49.458Z,1014.01
2018-04-15T00:40:49.506Z,1013.97
2018-04-15T00:41:49.492Z,1013.90
2018-04-15T00:42:49.488Z,1013.85
2018-04-15T00:43:49.508Z,1013.84
2018-04-15T00:44:49.519Z,1013.85
2018-04-15T00:45:49.686Z,1013.85
2018-04-15T00:46:49.523Z,1013.84
2018-04-15T00:47:49.546Z,1013.85
2018-04-15T00:48:49.558Z,1013.86
2018-04-15T00:49:49.565Z,1013.86
2018-04-15T00:50:49.709Z,1013.89
2018-04-15T00:51:49.606Z,1013.84
2018-04-15T00:52:49.599Z,1013.84
2018-04-15T00:53:49.621Z,1013.87
2018-04-15T00:54:49.620Z,1013.87
2018-04-15T00:55:49.628Z,1013.86
2018-04-15T00:56:49.655Z,1013.83
2018-04-15T00:57:49.668Z,1013.84
2018-04-15T00:58:49.651Z,1013.79
2018-04-15T00:59:49.683Z,1013.77
2018-04-15T01:00:50.552Z,1013.75
2018-04-15T01:01:49.695Z,1013.72
2018-04-15T01:02:49.741Z,1013.73
2018-04-15T01:03:49.708Z,1013.75
2018-04-15T01:04:49.720Z,1013.78
2018-04-15T01:05:49.731Z,1013.79
2018-04-15T01:06:49.754Z,1013.72
2018-04-15T01:07:49.790Z,1013.74
2018-04-15T01:08:49.767Z,1013.74
2018-04-15T01:09:49.757Z,1013.72
2018-04-15T01:10:49.849Z,1013.72
2018-04-15T01:11:49.798Z,1013.68
2018-04-15T01:12:49.836Z,1013.69
2018-04-15T01:13:49.793Z,1013.65
2018-04-15T01:14:49.850Z,1013.63
2018-04-15T01:15:49.840Z,1013.65
2018-04-15T01:16:49.845Z,1013.64
2018-04-15T01:17:49.905Z,1013.67
2018-04-15T01:18:49.858Z,1013.66
2018-04-15T01:19:49.871Z,1013.65
2018-04-15T01:20:49.877Z,1013.70
2018-04-15T01:21:49.891Z,1013.68
2018-04-15T01:22:49.887Z,1013.68
2018-04-15T01:23:49.937Z,1013.72
2018-04-15T01:24:49.918Z,1013.74
2018-04-15T01:25:49.925Z,1013.69
2018-04-15T01:26:49.929Z,1013.70
2018-04-15T01:27:49.944Z,1013.68
2018-04-15T01:28:50.001Z,1013.64
2018-04-15T01:29:49.963Z,1013.63
2018-04-15T01:30:50.002Z,1013.62
2018-04-15T01:31:49.984Z,1013.70
2018-04-15T01:32:50.014Z,1013.66
2018-04-15T01:33:50.031Z,1013.71
2018-04-15T01:34:50.010Z,1013.70
2018-04-15T01:35:50.023Z,1013.70
2018-04-15T01:36:50.043Z,1013.72
2018-04-15T01:37:50.038Z,1013.68
2018-04-15T01:38:50.084Z,1013.67
2018-04-15T01:39:50.128Z,1013.66
2018-04-15T01:40:50.085Z,1013.61
2018-04-15T01:41:50.078Z,1013.58
2018-04-15T01:42:50.087Z,1013.58
2018-04-15T01:43:50.101Z,1013.52
2018-04-15T01:44:50.112Z,1013.51
2018-04-15T01:45:50.164Z,1013.49
2018-04-15T01:46:50.123Z,1013.48
2018-04-15T01:47:50.151Z,1013.53
2018-04-15T01:48:50.180Z,1013.51
2018-04-15T01:49:50.163Z,1013.49
2018-04-15T01:50:50.202Z,1013.51
2018-04-15T01:51:50.181Z,1013.47
2018-04-15T01:52:50.206Z,1013.45
2018-04-15T01:53:50.195Z,1013.40
2018-04-15T01:54:50.215Z,1013.39
2018-04-15T01:55:50.227Z,1013.41
2018-04-15T01:56:50.238Z,1013.39
2018-04-15T01:57:50.297Z,1013.42
2018-04-15T01:58:50.254Z,1013.37
2018-04-15T01:59:50.257Z,1013.34
2018-04-15T02:00:50.271Z,1013.35
2018-04-15T02:01:50.286Z,1013.32
2018-04-15T02:02:50.308Z,1013.31
2018-04-15T02:03:50.298Z,1013.28
2018-04-15T02:04:50.345Z,1013.29
2018-04-15T02:05:50.336Z,1013.28
2018-04-15T02:06:50.330Z,1013.26
2018-04-15T02:07:50.337Z,1013.25
2018-04-15T02:08:50.358Z,1013.25
2018-04-15T02:09:50.375Z,1013.20
2018-04-15T02:10:50.390Z,1013.18
2018-04-15T02:11:50.376Z,1013.17
2018-04-15T02:12:50.406Z,1013.15
2018-04-15T02:13:50.400Z,1013.19
2018-04-15T02:14:50.414Z,1013.20
2018-04-15T02:15:50.441Z,1013.12
2018-04-15T02:16:50.465Z,1013.12
2018-04-15T02:17:50.433Z,1013.15
2018-04-15T02:18:50.464Z,1013.16
2018-04-15T02:19:50.481Z,1013.15
2018-04-15T02:20:50.461Z,1013.14
2018-04-15T02:21:50.513Z,1013.14
2018-04-15T02:22:50.503Z,1013.07
2018-04-15T02:23:50.516Z,1013.09
2018-04-15T02:24:50.511Z,1013.03
2018-04-15T02:25:50.529Z,1012.99
2018-04-15T02:26:50.561Z,1013.02
2018-04-15T02:27:50.592Z,1013.02
2018-04-15T02:28:50.553Z,1013.00
2018-04-15T02:29:50.557Z,1013.02
2018-04-15T02:30:50.586Z,1013.02
2018-04-15T02:31:50.579Z,1013.06
2018-04-15T02:32:50.647Z,1013.06
2018-04-15T02:33:50.603Z,1013.05
2018-04-15T02:34:50.631Z,1013.01
2018-04-15T02:35:50.615Z,1013.01
2018-04-15T02:36:50.625Z,1013.01
2018-04-15T02:37:50.653Z,1013.07
2018-04-15T02:38:50.683Z,1013.05
2018-04-15T02:39:50.682Z,1013.09
2018-04-15T02:40:50.680Z,1013.06
2018-04-15T02:41:50.687Z,1013.08
2018-04-15T02:42:50.683Z,1013.06
2018-04-15T02:43:50.727Z,1013.06
2018-04-15T02:44:50.741Z,1013.04
2018-04-15T02:45:50.725Z,1013.06
2018-04-15T02:46:50.733Z,1013.06
2018-04-15T02:47:50.731Z,1013.06
2018-04-15T02:48:50.742Z,1013.01
2018-04-15T02:49:50.790Z,1013.03
2018-04-15T02:50:50.812Z,1013.02
2018-04-15T02:51:50.781Z,1013.02
2018-04-15T02:52:50.815Z,1013.00
2018-04-15T02:53:50.788Z,1012.97
2018-04-15T02:54:50.811Z,1012.99
2018-04-15T02:55:50.857Z,1012.96
2018-04-15T02:56:50.835Z,1012.94
2018-04-15T02:57:50.835Z,1012.92
2018-04-15T02:58:50.841Z,1012.88
2018-04-15T02:59:50.883Z,1012.91
2018-04-15T03:00:51.028Z,1012.92
2018-04-15T03:01:50.860Z,1012.86
2018-04-15T03:02:50.887Z,1012.87
2018-04-15T03:03:50.914Z,1012.86
2018-04-15T03:04:50.911Z,1012.84
2018-04-15T03:05:50.917Z,1012.82
2018-04-15T03:06:50.978Z,1012.83
2018-04-15T03:07:50.937Z,1012.82
2018-04-15T03:08:50.935Z,1012.75
2018-04-15T03:09:50.953Z,1012.78
2018-04-15T03:10:50.951Z,1012.76
2018-04-15T03:11:50.966Z,1012.76
2018-04-15T03:12:51.020Z,1012.78
2018-04-15T03:13:50.995Z,1012.77
2018-04-15T03:14:51.002Z,1012.80
2018-04-15T03:15:51.017Z,1012.81
2018-04-15T03:16:51.058Z,1012.78
2018-04-15T03:17:51.054Z,1012.81
2018-04-15T03:18:51.184Z,1012.77
2018-04-15T03:19:51.051Z,1012.77
2018-04-15T03:20:51.050Z,1012.80
2018-04-15T03:21:51.079Z,1012.80
2018-04-15T03:22:51.077Z,1012.81
2018-04-15T03:23:51.098Z,1012.84
2018-04-15T03:24:51.119Z,1012.80
2018-04-15T03:25:51.118Z,1012.81
2018-04-15T03:26:51.106Z,1012.81
2018-04-15T03:27:51.170Z,1012.80
2018-04-15T03:28:51.141Z,1012.79
2018-04-15T03:29:51.141Z,1012.80
2018-04-15T03:30:51.143Z,1012.79
2018-04-15T03:31:51.168Z,1012.78
2018-04-15T03:32:51.175Z,1012.78
2018-04-15T03:33:51.218Z,1012.81
2018-04-15T03:34:51.189Z,1012.84
2018-04-15T03:35:51.197Z,1012.82
2018-04-15T03:36:51.213Z,1012.83
2018-04-15T03:37:51.210Z,1012.84
2018-04-15T03:38:51.280Z,1012.82
2018-04-15T03:39:51.251Z,1012.84
2018-04-15T03:40:51.239Z,1012.85
2018-04-15T03:41:51.253Z,1012.82
2018-04-15T03:42:51.266Z,1012.84
2018-04-15T03:43:51.378Z,1012.80
2018-04-15T03:44:51.310Z,1012.78
2018-04-15T03:45:51.294Z,1012.80
2018-04-15T03:46:51.328Z,1012.80
2018-04-15T03:47:51.345Z,1012.76
2018-04-15T03:48:51.321Z,1012.77
2018-04-15T03:49:51.340Z,1012.76
2018-04-15T03:50:51.385Z,1012.78
2018-04-15T03:51:51.353Z,1012.77
2018-04-15T03:52:51.411Z,1012.81
2018-04-15T03:53:51.374Z,1012.77
2018-04-15T03:54:51.381Z,1012.77
2018-04-15T03:55:51.399Z,1012.76
2018-04-15T03:56:51.409Z,1012.76
2018-04-15T03:57:51.471Z,1012.71
2018-04-15T03:58:51.415Z,1012.71
2018-04-15T03:59:51.462Z,1012.66
2018-04-15T04:00:51.436Z,1012.68
2018-04-15T04:01:51.465Z,1012.66
2018-04-15T04:02:51.490Z,1012.65
2018-04-15T04:03:51.504Z,1012.58
2018-04-15T04:04:51.544Z,1012.59
2018-04-15T04:05:51.529Z,1012.56
2018-04-15T04:06:51.516Z,1012.54
2018-04-15T04:07:51.518Z,1012.56
2018-04-15T04:08:51.559Z,1012.53
2018-04-15T04:09:51.534Z,1012.56
2018-04-15T04:10:51.558Z,1012.52
2018-04-15T04:11:51.555Z,1012.55
2018-04-15T04:12:51.577Z,1012.54
2018-04-15T04:13:51.570Z,1012.54
2018-04-15T04:14:51.609Z,1012.52
2018-04-15T04:15:51.605Z,1012.52
2018-04-15T04:16:51.601Z,1012.48
2018-04-15T04:17:51.609Z,1012.47
2018-04-15T04:18:51.615Z,1012.48
2018-04-15T04:19:51.680Z,1012.48
2018-04-15T04:20:51.638Z,1012.51
2018-04-15T04:21:51.646Z,1012.49
2018-04-15T04:22:51.646Z,1012.50
2018-04-15T04:23:51.668Z,1012.50
2018-04-15T04:24:51.741Z,1012.50
2018-04-15T04:25:51.686Z,1012.47
2018-04-15T04:26:51.696Z,1012.48
2018-04-15T04:27:51.711Z,1012.49
2018-04-15T04:28:51.725Z,1012.51
2018-04-15T04:29:51.764Z,1012.49
2018-04-15T04:30:51.753Z,1012.49
2018-04-15T04:31:51.744Z,1012.50
2018-04-15T04:32:51.753Z,1012.50
2018-04-15T04:33:51.765Z,1012.51
2018-04-15T04:34:51.837Z,1012.50
2018-04-15T04:35:51.787Z,1012.58
2018-04-15T04:36:51.801Z,1012.56
2018-04-15T04:37:51.825Z,1012.59
2018-04-15T04:38:51.816Z,1012.54
2018-04-15T04:39:51.863Z,1012.58
2018-04-15T04:40:51.825Z,1012.59
2018-04-15T04:41:51.832Z,1012.55
2018-04-15T04:42:51.858Z,1012.56
2018-04-15T04:43:51.855Z,1012.52
2018-04-15T04:44:51.941Z,1012.56
2018-04-15T04:45:51.904Z,1012.61
2018-04-15T04:46:51.882Z,1012.58
2018-04-15T04:47:51.927Z,1012.54
2018-04-15T04:48:51.924Z,1012.54
2018-04-15T04:49:51.926Z,1012.51
2018-04-15T04:50:51.974Z,1012.49
2018-04-15T04:51:51.948Z,1012.49
2018-04-15T04:52:51.952Z,1012.46
2018-04-15T04:53:51.968Z,1012.45
2018-04-15T04:54:51.977Z,1012.46
2018-04-15T04:55:52.018Z,1012.40
2018-04-15T04:56:51.991Z,1012.40
2018-04-15T04:57:51.994Z,1012.45
2018-04-15T04:58:51.996Z,1012.48
2018-04-15T04:59:52.026Z,1012.43
2018-04-15T05:00:52.066Z,1012.46
2018-04-15T05:01:52.079Z,1012.42
2018-04-15T05:02:52.043Z,1012.38
2018-04-15T05:03:52.064Z,1012.37
2018-04-15T05:04:52.077Z,1012.34
2018-04-15T05:05:52.090Z,1012.39
2018-04-15T05:06:52.107Z,1012.37
2018-04-15T05:07:52.159Z,1012.35
2018-04-15T05:08:52.101Z,1012.31
2018-04-15T05:09:52.117Z,1012.32
2018-04-15T05:10:52.162Z,1012.27
2018-04-15T05:11:52.137Z,1012.31
2018-04-15T05:12:52.178Z,1012.32
2018-04-15T05:13:52.147Z,1012.33
2018-04-15T05:14:52.161Z,1012.30
2018-04-15T05:15:52.161Z,1012.27
2018-04-15T05:16:52.171Z,1012.28
2018-04-15T05:17:52.222Z,1012.22
2018-04-15T05:18:52.244Z,1012.21
2018-04-15T05:19:52.247Z,1012.17
2018-04-15T05:20:52.259Z,1012.22
2018-04-15T05:21:52.229Z,1012.25
2018-04-15T05:22:52.235Z,1012.28
2018-04-15T05:23:52.279Z,1012.29
2018-04-15T05:24:52.312Z,1012.28
2018-04-15T05:25:52.267Z,1012.28
2018-04-15T05:26:52.272Z,1012.29
2018-04-15T05:27:52.299Z,1012.32
2018-04-15T05:28:52.300Z,1012.31
2018-04-15T05:29:52.313Z,1012.30
2018-04-15T05:30:52.358Z,1012.34
2018-04-15T05:31:52.316Z,1012.35
2018-04-15T05:32:52.339Z,1012.33
2018-04-15T05:33:52.342Z,1012.34
2018-04-15T05:34:52.498Z,1012.33
2018-04-15T05:35:52.376Z,1012.30
2018-04-15T05:36:52.377Z,1012.30
2018-04-15T05:37:52.387Z,1012.36
2018-04-15T05:38:52.421Z,1012.32
2018-04-15T05:39:52.428Z,1012.38
2018-04-15T05:40:52.455Z,1012.38
2018-04-15T05:41:52.480Z,1012.36
2018-04-15T05:42:52.443Z,1012.40
2018-04-15T05:43:52.458Z,1012.37
2018-04-15T05:44:52.452Z,1012.36
2018-04-15T05:45:52.472Z,1012.42
2018-04-15T05:46:52.500Z,1012.41
2018-04-15T05:47:52.485Z,1012.41
2018-04-15T05:48:52.491Z,1012.39
2018-04-15T05:49:52.499Z,1012.38
2018-04-15T05:50:52.554Z,1012.46
2018-04-15T05:51:52.525Z,1012.48
2018-04-15T05:52:52.556Z,1012.47
2018-04-15T05:53:52.622Z,1012.43
2018-04-15T05:54:52.561Z,1012.46
2018-04-15T05:55:52.592Z,1012.44
2018-04-15T05:56:52.593Z,1012.43
2018-04-15T05:57:52.604Z,1012.44
2018-04-15T05:58:52.603Z,1012.46
2018-04-15T05:59:52.611Z,1012.46
2018-04-15T06:00:52.644Z,1012.43
2018-04-15T06:01:52.619Z,1012.36
2018-04-15T06:02:52.636Z,1012.38
2018-04-15T06:03:52.650Z,1012.36
2018-04-15T06:04:52.707Z,1012.35
2018-04-15T06:05:52.672Z,1012.28
2018-04-15T06:06:52.697Z,1012.26
2018-04-15T06:07:52.687Z,1012.24
2018-04-15T06:08:52.743Z,1012.21
2018-04-15T06:09:52.757Z,1012.18
2018-04-15T06:10:52.725Z,1012.17
2018-04-15T06:11:52.733Z,1012.12
2018-04-15T06:12:52.745Z,1012.08
2018-04-15T06:13:52.747Z,1012.09
2018-04-15T06:14:52.813Z,1012.05
2018-04-15T06:15:52.765Z,1012.06
2018-04-15T06:16:52.830Z,1012.00
2018-04-15T06:17:52.785Z,1012.00
2018-04-15T06:18:52.797Z,1012.02
2018-04-15T06:19:52.825Z,1012.01
2018-04-15T06:20:52.862Z,1012.02
2018-04-15T06:21:52.850Z,1012.05
2018-04-15T06:22:52.852Z,1012.06
2018-04-15T06:23:52.879Z,1012.06
2018-04-15T06:24:52.860Z,1012.09
2018-04-15T06:25:52.899Z,1012.12
2018-04-15T06:26:52.929Z,1012.13
2018-04-15T06:27:52.904Z,1012.14
2018-04-15T06:28:52.910Z,1012.12
2018-04-15T06:29:52.920Z,1012.10
2018-04-15T06:30:52.951Z,1012.06
2018-04-15T06:31:52.975Z,1012.02
2018-04-15T06:32:52.992Z,1012.03
2018-04-15T06:33:52.989Z,1012.00
2018-04-15T06:34:53.006Z,1012.04
2018-04-15T06:35:52.981Z,1012.01
2018-04-15T06:36:53.015Z,1012.02
2018-04-15T06:37:53.042Z,1012.03
2018-04-15T06:38:53.048Z,1011.99
2018-04-15T06:39:53.071Z,1011.98
2018-04-15T06:40:53.048Z,1011.97
2018-04-15T06:41:53.100Z,1011.91
2018-04-15T06:42:53.054Z,1011.89
2018-04-15T06:43:53.075Z,1011.82
2018-04-15T06:44:53.132Z,1011.80
2018-04-15T06:45:53.090Z,1011.76
2018-04-15T06:46:53.105Z,1011.71
2018-04-15T06:47:53.124Z,1011.68
2018-04-15T06:48:53.143Z,1011.74
2018-04-15T06:49:53.166Z,1011.73
2018-04-15T06:50:53.142Z,1011.79
2018-04-15T06:51:53.184Z,1011.78
2018-04-15T06:52:53.204Z,1011.72
2018-04-15T06:53:53.187Z,1011.70
2018-04-15T06:54:53.196Z,1011.66
2018-04-15T06:55:53.206Z,1011.62
2018-04-15T06:56:53.244Z,1011.64
2018-04-15T06:57:53.269Z,1011.66
2018-04-15T06:58:53.244Z,1011.65
2018-04-15T06:59:53.267Z,1011.69
2018-04-15T07:00:53.278Z,1011.68
2018-04-15T07:01:53.265Z,1011.65
2018-04-15T07:02:53.301Z,1011.63
2018-04-15T07:03:53.313Z,1011.58
2018-04-15T07:04:53.311Z,1011.57
2018-04-15T07:05:53.331Z,1011.58
2018-04-15T07:06:53.321Z,1011.51
2018-04-15T07:07:53.364Z,1011.53
2018-04-15T07:08:53.339Z,1011.52
2018-04-15T07:09:53.371Z,1011.51
2018-04-15T07:10:53.424Z,1011.52
2018-04-15T07:11:53.429Z,1011.50
2018-04-15T07:12:53.420Z,1011.50
2018-04-15T07:13:53.442Z,1011.45
2018-04-15T07:14:53.449Z,1011.43
2018-04-15T07:15:53.430Z,1011.37
2018-04-15T07:16:53.430Z,1011.36
2018-04-15T07:17:53.457Z,1011.29
2018-04-15T07:18:53.491Z,1011.25
2018-04-15T07:19:53.467Z,1011.31
2018-04-15T07:20:53.495Z,1011.32
2018-04-15T07:21:53.525Z,1011.29
2018-04-15T07:22:53.519Z,1011.29
2018-04-15T07:23:53.564Z,1011.31
2018-04-15T07:24:53.540Z,1011.27
2018-04-15T07:25:53.561Z,1011.22
2018-04-15T07:26:53.599Z,1011.22
2018-04-15T07:27:53.558Z,1011.22
2018-04-15T07:28:53.633Z,1011.22
2018-04-15T07:29:53.591Z,1011.19
2018-04-15T07:30:53.604Z,1011.16
2018-04-15T07:31:53.617Z,1011.18
2018-04-15T07:32:53.649Z,1011.20
2018-04-15T07:33:53.644Z,1011.21
2018-04-15T07:34:53.687Z,1011.20
2018-04-15T07:35:53.672Z,1011.22
2018-04-15T07:36:53.703Z,1011.18
2018-04-15T07:37:53.680Z,1011.14
2018-04-15T07:38:53.700Z,1011.14
2018-04-15T07:39:53.726Z,1011.15
2018-04-15T07:40:53.759Z,1011.13
2018-04-15T07:41:53.719Z,1011.13
2018-04-15T07:42:53.736Z,1011.06
2018-04-15T07:43:53.769Z,1011.08
2018-04-15T07:44:53.785Z,1011.04
2018-04-15T07:45:53.781Z,1011.03
2018-04-15T07:46:53.795Z,1011.04
2018-04-15T07:47:53.873Z,1011.02
2018-04-15T07:48:53.804Z,1010.99
2018-04-15T07:49:53.829Z,1010.99
2018-04-15T07:50:53.829Z,1010.99
2018-04-15T07:51:53.859Z,1010.94
2018-04-15T07:52:53.908Z,1011.00
2018-04-15T07:53:53.874Z,1010.95
2018-04-15T07:54:53.895Z,1010.97
2018-04-15T07:55:53.894Z,1010.95
2018-04-15T07:56:53.910Z,1011.00
2018-04-15T07:57:54.003Z,1010.96
2018-04-15T07:58:53.957Z,1010.97
2018-04-15T07:59:53.983Z,1010.97
2018-04-15T08:00:53.977Z,1010.94
2018-04-15T08:01:53.960Z,1010.94
2018-04-15T08:02:54.001Z,1010.97
2018-04-15T08:03:53.992Z,1010.95
2018-04-15T08:04:53.999Z,1010.97
2018-04-15T08:05:54.026Z,1010.92
2018-04-15T08:06:54.068Z,1010.91
2018-04-15T08:07:54.035Z,1010.91
2018-04-15T08:08:54.063Z,1010.85
2018-04-15T08:09:54.105Z,1010.85
2018-04-15T08:10:54.086Z,1010.86
2018-04-15T08:11:54.123Z,1010.84
2018-04-15T08:12:54.096Z,1010.85
2018-04-15T08:13:54.151Z,1010.80
2018-04-15T08:14:54.126Z,1010.82
2018-04-15T08:15:54.144Z,1010.78
2018-04-15T08:16:54.157Z,1010.75
2018-04-15T08:17:54.155Z,1010.75
2018-04-15T08:18:54.227Z,1010.72
2018-04-15T08:19:54.183Z,1010.70
2018-04-15T08:20:54.221Z,1010.70
2018-04-15T08:21:54.205Z,1010.67
2018-04-15T08:22:54.229Z,1010.65
2018-04-15T08:23:54.254Z,1010.59
2018-04-15T08:24:54.267Z,1010.59
2018-04-15T08:25:54.312Z,1010.58
2018-04-15T08:26:54.320Z,1010.58
2018-04-15T08:27:54.338Z,1010.60
2018-04-15T08:28:54.303Z,1010.60
2018-04-15T08:29:54.433Z,1010.55
2018-04-15T08:30:54.322Z,1010.54
2018-04-15T08:31:54.356Z,1010.54
2018-04-15T08:32:54.376Z,1010.55
2018-04-15T08:33:54.365Z,1010.55
2018-04-15T08:34:54.368Z,1010.51
2018-04-15T08:35:54.404Z,1010.48
2018-04-15T08:36:54.386Z,1010.48
2018-04-15T08:37:54.444Z,1010.46
2018-04-15T08:38:54.421Z,1010.43
2018-04-15T08:39:54.425Z,1010.49
2018-04-15T08:40:54.443Z,1010.49
2018-04-15T08:41:54.463Z,1010.51
2018-04-15T08:42:54.517Z,1010.50
2018-04-15T08:43:54.485Z,1010.52
2018-04-15T08:44:54.499Z,1010.52
2018-04-15T08:45:54.507Z,1010.52
2018-04-15T08:46:54.523Z,1010.50
2018-04-15T08:47:54.568Z,1010.52
2018-04-15T08:48:54.542Z,1010.55
2018-04-15T08:49:54.576Z,1010.52
2018-04-15T08:50:54.652Z,1010.50
2018-04-15T08:51:54.601Z,1010.52
2018-04-15T08:52:54.665Z,1010.49
2018-04-15T08:53:54.637Z,1010.52
2018-04-15T08:54:54.607Z,1010.51
2018-04-15T08:55:54.634Z,1010.48
2018-04-15T08:56:54.718Z,1010.48
2018-04-15T08:57:54.779Z,1010.47
2018-04-15T08:58:54.687Z,1010.47
2018-04-15T08:59:54.681Z,1010.43
2018-04-15T09:00:54.700Z,1010.38
2018-04-15T09:01:54.733Z,1010.38
2018-04-15T09:02:54.726Z,1010.36
2018-04-15T09:03:54.719Z,1010.35
2018-04-15T09:04:54.756Z,1010.30
2018-04-15T09:05:54.744Z,1010.27
2018-04-15T09:06:54.798Z,1010.22
2018-04-15T09:07:54.798Z,1010.24
2018-04-15T09:08:54.789Z,1010.22
2018-04-15T09:09:54.815Z,1010.20
2018-04-15T09:10:54.813Z,1010.20
2018-04-15T09:11:54.863Z,1010.21
2018-04-15T09:12:54.850Z,1010.22
2018-04-15T09:13:54.864Z,1010.20
2018-04-15T09:14:54.878Z,1010.20
2018-04-15T09:15:54.892Z,1010.20
2018-04-15T09:16:54.947Z,1010.20
2018-04-15T09:17:55.024Z,1010.16
2018-04-15T09:18:54.989Z,1010.21
2018-04-15T09:19:54.938Z,1010.19
2018-04-15T09:20:54.952Z,1010.21
2018-04-15T09:21:54.948Z,1010.17
2018-04-15T09:22:54.982Z,1010.08
2018-04-15T09:23:55.066Z,1010.07
2018-04-15T09:24:55.023Z,1010.04
2018-04-15T09:25:55.042Z,1010.07
2018-04-15T09:26:55.022Z,1009.99
2018-04-15T09:27:55.041Z,1010.02
2018-04-15T09:28:55.062Z,1010.00
2018-04-15T09:29:55.113Z,1009.99
2018-04-15T09:30:55.080Z,1009.97
2018-04-15T09:31:55.077Z,1010.01
2018-04-15T09:32:55.092Z,1009.97
2018-04-15T09:33:55.112Z,1010.01
2018-04-15T09:34:55.170Z,1009.99
2018-04-15T09:35:55.147Z,1010.04
2018-04-15T09:36:55.230Z,1009.98
2018-04-15T09:37:55.164Z,1010.00
2018-04-15T09:38:55.194Z,1009.98
2018-04-15T09:39:55.188Z,1010.03
2018-04-15T09:40:55.195Z,1009.97
2018-04-15T09:41:55.273Z,1010.02
2018-04-15T09:42:55.218Z,1010.00
2018-04-15T09:43:55.248Z,1010.00
2018-04-15T09:44:55.267Z,1009.98
2018-04-15T09:45:55.275Z,1009.94
2018-04-15T09:46:55.347Z,1009.96
2018-04-15T09:47:55.330Z,1009.97
2018-04-15T09:48:55.492Z,1009.94
2018-04-15T09:49:55.317Z,1009.92
2018-04-15T09:50:55.330Z,1009.93
2018-04-15T09:51:55.378Z,1009.97
2018-04-15T09:52:55.363Z,1009.94
2018-04-15T09:53:55.384Z,1009.96
2018-04-15T09:54:55.499Z,1009.94
2018-04-15T09:55:55.439Z,1009.93
2018-04-15T09:56:55.427Z,1009.92
2018-04-15T09:57:55.429Z,1009.93
2018-04-15T09:58:55.428Z,1009.89
2018-04-15T09:59:55.442Z,1009.85
2018-04-15T10:00:55.496Z,1009.86
2018-04-15T10:01:55.470Z,1009.88
2018-04-15T10:02:55.489Z,1009.85
2018-04-15T10:03:55.499Z,1009.80
2018-04-15T10:04:55.535Z,1009.82
2018-04-15T10:05:55.564Z,1009.79
2018-04-15T10:06:55.537Z,1009.79
2018-04-15T10:07:55.542Z,1009.79
2018-04-15T10:08:55.565Z,1009.80
2018-04-15T10:09:55.600Z,1009.73
2018-04-15T10:10:55.669Z,1009.74
2018-04-15T10:11:55.619Z,1009.73
2018-04-15T10:12:55.609Z,1009.75
2018-04-15T10:13:55.643Z,1009.74
2018-04-15T10:14:55.682Z,1009.71
2018-04-15T10:15:55.708Z,1009.71
2018-04-15T10:16:55.721Z,1009.71
2018-04-15T10:17:55.696Z,1009.69
2018-04-15T10:18:55.721Z,1009.67
2018-04-15T10:19:55.703Z,1009.65
2018-04-15T10:20:55.855Z,1009.67
2018-04-15T10:21:55.793Z,1009.69
2018-04-15T10:22:55.762Z,1009.69
2018-04-15T10:23:55.836Z,1009.65
2018-04-15T10:24:55.780Z,1009.70
2018-04-15T10:25:55.821Z,1009.66
2018-04-15T10:26:55.808Z,1009.66
2018-04-15T10:27:55.843Z,1009.68
2018-04-15T10:28:55.816Z,1009.70
2018-04-15T10:29:55.873Z,1009.66
2018-04-15T10:30:55.916Z,1009.66
2018-04-15T10:31:55.869Z,1009.61
2018-04-15T10:32:55.885Z,1009.62
2018-04-15T10:33:55.920Z,1009.62
2018-04-15T10:34:55.964Z,1009.62
2018-04-15T10:35:55.949Z,1009.64
2018-04-15T10:36:55.929Z,1009.61
2018-04-15T10:37:55.954Z,1009.60
2018-04-15T10:38:55.980Z,1009.59
2018-04-15T10:39:56.016Z,1009.55
2018-04-15T10:40:55.987Z,1009.48
2018-04-15T10:41:56.014Z,1009.52
2018-04-15T10:42:56.061Z,1009.44
2018-04-15T10:43:56.042Z,1009.39
2018-04-15T10:44:56.073Z,1009.38
2018-04-15T10:45:56.072Z,1009.29
2018-04-15T10:46:56.104Z,1009.24
2018-04-15T10:47:56.102Z,1009.24
2018-04-15T10:48:56.117Z,1009.19
2018-04-15T10:49:56.148Z,1009.15
2018-04-15T10:50:56.196Z,1009.17
2018-04-15T10:51:56.200Z,1009.15
2018-04-15T10:52:56.145Z,1009.14
2018-04-15T10:53:56.196Z,1009.12
2018-04-15T10:54:56.188Z,1009.13
2018-04-15T10:55:56.188Z,1009.17
2018-04-15T10:56:56.245Z,1009.13
2018-04-15T10:57:56.220Z,1009.13
2018-04-15T10:58:56.239Z,1009.14
2018-04-15T10:59:56.303Z,1009.14
2018-04-15T11:00:56.291Z,1009.11
2018-04-15T11:01:56.350Z,1009.09
2018-04-15T11:02:56.298Z,1009.08
2018-04-15T11:03:56.312Z,1009.06
2018-04-15T11:04:56.342Z,1009.06
2018-04-15T11:05:56.338Z,1009.04
2018-04-15T11:06:56.424Z,1009.04
2018-04-15T11:07:56.361Z,1009.05
2018-04-15T11:08:56.388Z,1009.06
2018-04-15T11:09:56.380Z,1009.03
2018-04-15T11:10:56.406Z,1009.00
2018-04-15T11:11:56.469Z,1009.02
2018-04-15T11:12:56.433Z,1008.99
2018-04-15T11:13:56.505Z,1008.94
2018-04-15T11:14:56.460Z,1008.96
2018-04-15T11:15:56.504Z,1008.93
2018-04-15T11:16:56.524Z,1008.87
2018-04-15T11:17:56.504Z,1008.90
2018-04-15T11:18:56.577Z,1008.88
2018-04-15T11:19:56.522Z,1008.90
2018-04-15T11:20:56.541Z,1008.90
2018-04-15T11:21:56.560Z,1008.85
2018-04-15T11:22:56.593Z,1008.88
2018-04-15T11:23:56.638Z,1008.85
2018-04-15T11:24:56.593Z,1008.84
2018-04-15T11:25:56.632Z,1008.87
2018-04-15T11:26:56.649Z,1008.85
2018-04-15T11:27:56.686Z,1008.82
2018-04-15T11:28:56.726Z,1008.80
2018-04-15T11:29:56.672Z,1008.81
2018-04-15T11:30:56.710Z,1008.84
2018-04-15T11:31:56.723Z,1008.78
2018-04-15T11:32:56.728Z,1008.75
2018-04-15T11:33:56.766Z,1008.76
2018-04-15T11:34:56.753Z,1008.75
2018-04-15T11:35:56.747Z,1008.77
2018-04-15T11:36:56.829Z,1008.75
2018-04-15T11:37:56.822Z,1008.79
2018-04-15T11:38:56.801Z,1008.79
2018-04-15T11:39:56.811Z,1008.77
2018-04-15T11:40:56.829Z,1008.77
2018-04-15T11:41:56.898Z,1008.76
2018-04-15T11:42:56.855Z,1008.79
2018-04-15T11:43:56.872Z,1008.79
2018-04-15T11:44:56.893Z,1008.76
2018-04-15T11:45:56.905Z,1008.76
2018-04-15T11:46:56.932Z,1008.76
2018-04-15T11:47:56.959Z,1008.79
2018-04-15T11:48:56.936Z,1008.78
2018-04-15T11:49:56.986Z,1008.77
2018-04-15T11:50:56.969Z,1008.78
2018-04-15T11:51:56.991Z,1008.73
2018-04-15T11:52:57.049Z,1008.69
2018-04-15T11:53:57.027Z,1008.73
2018-04-15T11:54:57.117Z,1008.71
2018-04-15T11:55:57.075Z,1008.72
2018-04-15T11:56:57.086Z,1008.70
2018-04-15T11:57:57.071Z,1008.72
2018-04-15T11:58:57.176Z,1008.70
2018-04-15T11:59:57.126Z,1008.68
2018-04-15T12:00:57.184Z,1008.69
2018-04-15T12:01:57.164Z,1008.69
2018-04-15T12:02:57.159Z,1008.68
2018-04-15T12:03:57.192Z,1008.68
2018-04-15T12:04:57.157Z,1008.65
2018-04-15T12:05:57.217Z,1008.65